NCAR-RAP Real-Time Weather Data

Output produced by METARs form (19 June 2019  11:43 UTC)
found at http://weather.rap.ucar.edu/surface/
 
KCLT 191107Z 22003KT 1SM R18C/P6000FT BR OVC002 23/22 A2990 RMK AO2 SFC VIS 2 1/2 T02280217
KCLT 191052Z 24003KT 2SM BR OVC002 23/22 A2990 RMK AO2 SFC VIS 4 SLP115 T02280217
KCLT 191043Z 22004KT 2SM BR OVC002 23/22 A2990 RMK AO2 SFC VIS 4 T02280217
KCLT 191014Z VRB03KT 7SM OVC003 23/21 A2989 RMK AO2 T02280211
KCLT 190952Z 00000KT 8SM OVC007 22/21 A2989 RMK AO2 CIG 004V008 SLP113 T02220211
KCLT 190935Z 00000KT 7SM BKN007 OVC140 22/21 A2989 RMK AO2 T02220206
KCLT 190852Z 00000KT 8SM FEW002 OVC140 22/21 A2988 RMK AO2 SLP109 T02220211 56015
KCLT 190752Z 25003KT 5SM BR FEW002 OVC130 23/22 A2988 RMK AO2 SLP109 T02280217
KCLT 190652Z 00000KT 8SM FEW002 FEW110 OVC160 23/22 A2989 RMK AO2 SLP111 T02330222
KCLT 190645Z 19003KT 9SM SCT002 SCT110 OVC160 23/22 A2989 RMK AO2 T02330222
KCLT 190603Z 14006KT 8SM BKN003 OVC023 24/22 A2992 RMK AO2 T02390222
KCLT 190552Z 14006KT 9SM BKN005 BKN008 OVC023 24/22 A2993 RMK AO2 RAE33 TSE01 CIG 003V006 SLP123 P0004 60005 T02390222 10278 20239 58002
KCLT 190533Z 11006KT 10SM OVC005 24/22 A2993 RMK AO2 LTG DSNT N RAE33 TSE01 CIG 005V009 P0004 T02390222
KCLT 190518Z VRB04KT 6SM RA BR OVC010 24/22 A2993 RMK AO2 LTG DSNT N-E TSE01 P0004 T02390222
KCLT 190503Z COR 14005KT 4SM VCTS RA BR FEW008 BKN012 OVC018 24/22 A2994 RMK AO2 TSE01 LTG DSNT E CB DSNT E MOV NE P0002 T02390222
KCLT 190452Z 13006KT 6SM -RA BR SCT010 BKN016 OVC023 24/22 A2994 RMK AO2 RAB30 SLP129 P0001 T02440222 403110228
KCLT 190432Z 10005KT 10SM -RA SCT021 BKN028 OVC060 25/21 A2994 RMK AO2 RAB30 P0000 T02500211
KCLT 190352Z 04004KT 10SM SCT038TCU BKN060 OVC170 26/21 A2994 RMK AO2 LTG DSNT SW CB DSNT SW MOV NE TCU E SLP127 T02560211
KCLT 190252Z 01005KT 10SM FEW010 SCT041 BKN160 OVC230 25/21 A2993 RMK AO2 SLP126 LTG DSNT E AND SW CB DSNT E AND SW MOV NE T02500206 56005
KCLT 190152Z COR 00000KT 10SM SCT043TCU BKN120 OVC200 27/19 A2994 RMK AO2 LTG DSNT NE SLP127 LTG DSNT NE AND E CB DSNT NE AND E TCU S AND W T02670194
KCLT 190052Z 00000KT 10SM FEW038 SCT047CB BKN140 OVC200 27/21 A2993 RMK AO2 TSE03B05E24 SLP126 TS DSPTD CB E-S MOV NE T02720206
KCLT 190024Z 31004KT 10SM FEW030 SCT045CB BKN140 OVC220 27/21 A2994 RMK AO2 TSE03B05E24 TS DSPTD CB SE MOV NE TCU S T02670211
KCLT 190005Z 31003KT 10SM TS SCT045CB SCT140 OVC250 27/22 A2995 RMK AO2 TSE03B05 OCNL LTGICCG SE TS SE MOV N CB DSNT E MOV NE T02720217
KCLT 182352Z 00000KT 10SM FEW045TCU SCT150 OVC220 28/21 A2995 RMK AO2 SLP131 CB DSNT E AND SE MOV NE TCU S TCU DSNT N T02780211 10311 20278 53003
KCLT 182252Z 19005KT 10SM FEW048 FEW100 BKN230 29/20 A2993 RMK AO2 SLP126 CB DSNT NW TCU DSNT NE AND SE-S T02890200
KCLT 182152Z 19007KT 10SM FEW048 FEW110 SCT200 BKN250 29/19 A2993 RMK AO2 SLP126 CB DSNT NE AND NW TCU DSNT SE T02940194
KCLT 182052Z 19008KT 10SM FEW046 FEW110 SCT200 BKN250 30/20 A2994 RMK AO2 SLP128 TCU DSNT NE AND S AND NW T03000200 56019
KCLT 181952Z 19008KT 10SM FEW047 SCT065 SCT200 BKN250 30/19 A2996 RMK AO2 SLP135 T03000194
KCLT 181852Z 19007KT 10SM FEW037 SCT045 BKN200 BKN250 31/20 A2997 RMK AO2 SLP138 TCU DSNT NE T03060200
KCLT 181752Z 22007KT 10SM FEW032 SCT060 BKN200 BKN250 30/21 A3000 RMK AO2 SLP147 TCU DSNT N-NE AND SE T03000206 10300 20250 58014
KCLT 181652Z 22007KT 10SM SCT029TCU BKN055 BKN200 BKN250 29/21 A3003 RMK AO2 SLP157 TCU NE-E T02890211
KCLT 181552Z 20009KT 10SM SCT026 BKN031 BKN250 29/22 A3004 RMK AO2 SLP162 T02940217
KCLT 181452Z 21006KT 10SM BKN022 BKN250 28/22 A3004 RMK AO2 SLP162 T02830217 56004
KCLT 181427Z 21007KT 10SM SCT021 BKN250 28/22 A3003 RMK AO2 T02780217
KCLT 181352Z 20006KT 10SM BKN018 BKN250 27/22 A3004 RMK AO2 SLP162 T02720217
KCLT 181344Z 21007KT 10SM BKN018 BKN250 28/22 A3004 RMK AO2 T02780217